createdAt,value
2018-07-23T00:00:33.789Z,74.70
2018-07-23T00:03:29.924Z,74.60
2018-07-23T00:06:26.288Z,74.70
2018-07-23T00:09:22.424Z,74.80
2018-07-23T00:12:18.775Z,75.10
2018-07-23T00:15:15.479Z,75.30
2018-07-23T00:18:12.109Z,75.30
2018-07-23T00:21:08.760Z,75.10
2018-07-23T00:24:05.369Z,75.00
2018-07-23T00:27:01.828Z,74.90
2018-07-23T00:32:54.004Z,74.90
2018-07-23T00:35:50.051Z,75.30
2018-07-23T00:38:46.400Z,75.70
2018-07-23T00:41:42.826Z,75.90
2018-07-23T00:44:39.635Z,75.90
2018-07-23T00:47:35.724Z,75.90
2018-07-23T00:50:32.113Z,76.00
2018-07-23T00:53:28.165Z,76.20
2018-07-23T00:56:24.490Z,76.50
2018-07-23T00:59:21.008Z,76.50
2018-07-23T01:02:17.059Z,76.50
2018-07-23T01:05:13.423Z,76.90
2018-07-23T01:08:09.763Z,76.90
2018-07-23T01:11:06.674Z,76.80
2018-07-23T01:14:02.734Z,77.00
2018-07-23T01:16:59.072Z,77.40
2018-07-23T01:22:52.063Z,78.00
2018-07-23T01:25:48.106Z,78.20
2018-07-23T01:28:44.247Z,78.50
2018-07-23T01:31:40.295Z,78.80
2018-07-23T01:34:36.641Z,78.80
2018-07-23T01:37:32.988Z,78.90
2018-07-23T01:40:29.077Z,78.70
2018-07-23T01:43:25.417Z,78.80
2018-07-23T01:46:21.459Z,78.70
2018-07-23T01:49:17.899Z,79.00
2018-07-23T01:52:14.604Z,79.00
2018-07-23T01:55:11.260Z,79.00
2018-07-23T01:58:07.928Z,78.80
2018-07-23T02:01:11.315Z,78.50
2018-07-23T02:04:07.938Z,78.30
2018-07-23T02:07:04.999Z,78.40
2018-07-23T02:10:01.341Z,78.40
2018-07-23T02:12:57.695Z,78.40
2018-07-23T02:15:54.491Z,78.30
2018-07-23T02:18:50.745Z,78.30
2018-07-23T02:21:47.080Z,78.70
2018-07-23T02:24:43.143Z,78.90
2018-07-23T02:27:39.497Z,79.20
2018-07-23T02:30:35.574Z,79.30
2018-07-23T02:33:31.665Z,79.40
2018-07-23T02:36:28.005Z,79.70
2018-07-23T02:39:24.193Z,80.00
2018-07-23T02:42:20.232Z,80.20
2018-07-23T02:45:16.581Z,80.30
2018-07-23T02:48:13.299Z,80.40
2018-07-23T02:51:09.791Z,80.10
2018-07-23T02:54:06.321Z,80.00
2018-07-23T02:57:02.809Z,79.90
2018-07-23T02:59:58.927Z,79.90
2018-07-23T03:02:55.250Z,80.20
2018-07-23T03:05:51.332Z,80.60
2018-07-23T03:08:47.680Z,80.70
2018-07-23T03:11:43.743Z,80.70
2018-07-23T03:14:39.839Z,80.70
2018-07-23T03:17:36.185Z,81.10
2018-07-23T03:20:32.572Z,81.30
2018-07-23T03:23:28.618Z,81.40
2018-07-23T03:26:24.700Z,81.70
2018-07-23T03:29:21.170Z,81.80
2018-07-23T03:32:17.678Z,81.90
2018-07-23T03:38:10.128Z,82.40
2018-07-23T03:41:06.302Z,81.30
2018-07-23T03:44:02.657Z,81.50
2018-07-23T03:46:59.000Z,81.50
2018-07-23T03:49:55.196Z,81.30
2018-07-23T03:52:51.531Z,81.20
2018-07-23T03:55:47.856Z,80.90
2018-07-23T03:58:44.527Z,81.70
2018-07-23T04:01:41.254Z,80.80
2018-07-23T04:04:37.891Z,80.80
2018-07-23T04:07:34.485Z,80.70
2018-07-23T04:10:31.186Z,80.50
2018-07-23T04:13:27.517Z,80.50
2018-07-23T04:16:24.151Z,80.50
2018-07-23T04:19:20.804Z,80.30
2018-07-23T04:22:17.245Z,80.20
2018-07-23T04:25:13.313Z,80.90
2018-07-23T04:28:09.667Z,80.40
2018-07-23T04:31:06.365Z,80.50
2018-07-23T04:34:02.424Z,80.40
2018-07-23T04:36:58.780Z,80.60
2018-07-23T04:39:54.974Z,80.60
2018-07-23T04:42:51.312Z,80.70
2018-07-23T04:45:47.395Z,80.70
2018-07-23T04:48:43.478Z,80.50
2018-07-23T04:51:39.871Z,80.50
2018-07-23T04:54:35.920Z,80.50
2018-07-23T04:57:32.280Z,80.40
2018-07-23T05:00:28.787Z,80.40
2018-07-23T05:22:38.187Z,59.50
2018-07-23T05:25:34.284Z,62.00
2018-07-23T05:31:27.157Z,67.60
2018-07-23T05:34:23.309Z,69.20
2018-07-23T05:37:19.705Z,70.90
2018-07-23T05:40:16.493Z,72.10
2018-07-23T05:43:12.905Z,72.70
2018-07-23T05:46:08.997Z,73.00
2018-07-23T05:49:05.508Z,73.10
2018-07-23T05:52:01.600Z,73.00
2018-07-23T05:54:58.073Z,72.90
2018-07-23T05:57:54.859Z,72.80
2018-07-23T06:00:50.917Z,72.20
2018-07-23T06:03:47.073Z,72.20
2018-07-23T06:06:43.208Z,71.60
2018-07-23T06:12:35.912Z,67.20
2018-07-23T06:15:33.480Z,63.70
2018-07-23T06:18:29.692Z,60.90
2018-07-23T06:21:26.073Z,58.40
2018-07-23T06:27:17.995Z,56.40
2018-07-23T06:30:14.365Z,55.70
2018-07-23T06:33:12.483Z,55.10
2018-07-23T06:36:08.569Z,54.90
2018-07-23T06:39:07.858Z,53.80
2018-07-23T06:42:04.255Z,52.90
2018-07-23T06:45:01.098Z,51.50
2018-07-23T06:47:58.395Z,50.30
2018-07-23T06:50:54.771Z,49.30
2018-07-23T06:53:50.895Z,48.40
2018-07-23T06:56:47.423Z,47.80
2018-07-23T06:59:43.778Z,47.00
2018-07-23T07:02:40.193Z,46.30
2018-07-23T07:05:36.334Z,45.30
2018-07-23T07:08:33.190Z,44.60
2018-07-23T07:11:29.916Z,44.10
2018-07-23T07:14:26.917Z,43.30
2018-07-23T07:17:23.614Z,42.50
2018-07-23T07:20:19.717Z,41.80
2018-07-23T07:23:16.378Z,41.30
2018-07-23T07:26:12.805Z,40.70
2018-07-23T07:29:08.903Z,40.30
2018-07-23T07:35:03.134Z,40.10
2018-07-23T07:37:59.629Z,40.30
2018-07-23T07:40:55.627Z,41.90
2018-07-23T07:43:52.184Z,43.50
2018-07-23T07:46:48.280Z,44.40
2018-07-23T07:49:45.055Z,45.90
2018-07-23T07:52:41.986Z,46.20
2018-07-23T07:58:34.155Z,47.80
2018-07-23T08:01:30.886Z,47.60
2018-07-23T08:04:28.818Z,47.50
2018-07-23T08:07:25.635Z,48.20
2018-07-23T08:10:21.793Z,49.30
2018-07-23T08:13:18.313Z,50.00
2018-07-23T08:16:15.120Z,50.60
2018-07-23T08:19:11.214Z,50.50
2018-07-23T08:22:08.153Z,51.40
2018-07-23T08:25:04.806Z,51.30
2018-07-23T08:28:00.945Z,51.40
2018-07-23T08:30:57.407Z,50.60
2018-07-23T08:33:54.143Z,50.40
2018-07-23T08:36:50.547Z,49.50
2018-07-23T08:39:46.629Z,49.50
2018-07-23T08:42:42.718Z,49.90
2018-07-23T08:45:39.288Z,50.00
2018-07-23T08:48:36.050Z,49.30
2018-07-23T08:51:32.603Z,46.40
2018-07-23T08:54:28.747Z,44.20
2018-07-23T08:57:25.279Z,43.30
2018-07-23T09:03:17.421Z,42.80
2018-07-23T09:06:14.171Z,42.60
2018-07-23T09:12:07.479Z,40.90
2018-07-23T09:15:03.589Z,39.50
2018-07-23T09:17:59.683Z,38.20
2018-07-23T09:20:56.520Z,38.00
2018-07-23T09:23:53.005Z,38.20
2018-07-23T09:26:49.646Z,37.70
2018-07-23T09:29:46.094Z,37.40
2018-07-23T09:32:42.182Z,37.90
2018-07-23T09:35:38.915Z,38.00
2018-07-23T09:38:35.324Z,37.80
2018-07-23T09:41:39.169Z,39.10
2018-07-23T09:44:35.881Z,40.00
2018-07-23T09:47:32.265Z,40.50
2018-07-23T09:50:28.399Z,41.60
2018-07-23T09:53:25.148Z,42.40
2018-07-23T09:56:21.402Z,43.70
2018-07-23T09:59:17.494Z,43.10
2018-07-23T10:02:14.216Z,43.00
2018-07-23T10:05:10.328Z,42.80
2018-07-23T10:08:06.423Z,43.30
2018-07-23T10:11:02.560Z,42.80
2018-07-23T10:13:58.630Z,43.50
2018-07-23T10:16:54.671Z,43.00
2018-07-23T10:19:50.958Z,43.40
2018-07-23T10:22:47.349Z,43.30
2018-07-23T10:25:45.561Z,42.90
2018-07-23T10:28:41.986Z,43.70
2018-07-23T10:31:38.054Z,43.80
2018-07-23T10:34:34.549Z,44.50
2018-07-23T10:37:30.622Z,44.30
2018-07-23T10:40:27.140Z,44.30
2018-07-23T10:43:23.208Z,44.20
2018-07-23T10:49:14.958Z,45.00
2018-07-23T10:58:02.674Z,45.90
2018-07-23T11:00:59.262Z,46.00
2018-07-23T11:03:56.343Z,44.60
2018-07-23T11:06:52.446Z,45.20
2018-07-23T11:12:44.732Z,46.30
2018-07-23T11:15:41.259Z,46.30
2018-07-23T11:18:37.402Z,45.90
2018-07-23T11:21:33.457Z,46.10
2018-07-23T11:24:29.877Z,46.20
2018-07-23T11:27:25.943Z,46.30
2018-07-23T11:30:22.402Z,46.50
2018-07-23T11:33:18.454Z,46.80
2018-07-23T11:36:14.526Z,46.80
2018-07-23T11:39:12.004Z,46.90
2018-07-23T11:42:08.066Z,47.20
2018-07-23T11:45:04.226Z,46.60
2018-07-23T11:48:00.625Z,46.40
2018-07-23T11:50:56.698Z,46.00
2018-07-23T11:53:52.775Z,46.30
2018-07-23T11:56:49.370Z,46.20
2018-07-23T12:02:41.465Z,46.20
2018-07-23T12:05:38.391Z,46.00
2018-07-23T12:14:26.675Z,46.10
2018-07-23T12:17:23.237Z,46.00
2018-07-23T12:20:19.260Z,45.90
2018-07-23T12:23:15.835Z,46.10
2018-07-23T12:26:12.574Z,45.60
2018-07-23T12:29:08.979Z,45.60
2018-07-23T12:32:05.728Z,45.70
2018-07-23T12:37:58.575Z,45.70
2018-07-23T12:43:50.658Z,45.20
2018-07-23T12:46:47.063Z,45.10
2018-07-23T12:49:43.122Z,44.60
2018-07-23T12:52:39.668Z,45.40
2018-07-23T12:55:35.711Z,45.30
2018-07-23T12:58:32.223Z,45.60
2018-07-23T13:01:28.328Z,45.40
2018-07-23T13:04:25.076Z,45.30
2018-07-23T13:08:19.263Z,44.30
2018-07-23T13:11:15.679Z,43.70
2018-07-23T13:14:12.078Z,43.80
2018-07-23T13:17:08.542Z,43.90
2018-07-23T13:20:04.702Z,43.50
2018-07-23T13:23:00.856Z,43.40
2018-07-23T13:25:57.359Z,43.10
2018-07-23T13:28:53.452Z,42.70
2018-07-23T13:34:46.349Z,43.90
2018-07-23T13:49:26.873Z,44.90
2018-07-23T13:52:23.280Z,45.20
2018-07-23T13:55:19.381Z,45.20
2018-07-23T13:58:15.531Z,45.30
2018-07-23T14:01:12.061Z,45.40
2018-07-23T14:04:08.487Z,45.60
2018-07-23T14:07:04.587Z,45.10
2018-07-23T14:10:01.037Z,45.40
2018-07-23T14:12:57.106Z,45.80
2018-07-23T14:15:53.578Z,45.70
2018-07-23T14:18:49.690Z,45.40
2018-07-23T14:21:45.770Z,45.50
2018-07-23T14:24:41.888Z,46.10
2018-07-23T14:27:38.350Z,46.00
2018-07-23T14:30:34.418Z,45.80
2018-07-23T14:33:31.037Z,46.10
2018-07-23T14:36:31.304Z,46.10
2018-07-23T14:45:18.876Z,46.50
2018-07-23T14:48:15.414Z,46.20
2018-07-23T14:54:07.833Z,45.80
2018-07-23T14:57:04.076Z,46.20
2018-07-23T15:00:00.148Z,46.70
2018-07-23T15:05:52.380Z,46.40
2018-07-23T15:08:48.456Z,46.00
2018-07-23T15:11:44.541Z,46.50
2018-07-23T15:14:40.662Z,46.00
2018-07-23T15:17:36.746Z,46.00
2018-07-23T15:20:32.835Z,45.70
2018-07-23T15:23:31.604Z,45.30
2018-07-23T15:26:28.398Z,44.80
2018-07-23T15:29:24.628Z,45.00
2018-07-23T15:32:21.059Z,45.10
2018-07-23T15:35:17.157Z,45.40
2018-07-23T15:38:13.635Z,45.40
2018-07-23T15:41:10.157Z,45.00
2018-07-23T15:47:02.341Z,44.60
2018-07-23T15:49:58.412Z,44.50
2018-07-23T15:52:54.889Z,44.30
2018-07-23T15:55:51.276Z,44.40
2018-07-23T15:58:47.711Z,44.60
2018-07-23T16:01:43.772Z,44.50
2018-07-23T16:04:40.351Z,44.20
2018-07-23T16:07:36.440Z,43.90
2018-07-23T16:10:32.510Z,44.10
2018-07-23T16:13:29.316Z,44.60
2018-07-23T16:16:26.164Z,44.50
2018-07-23T16:19:22.420Z,44.20
2018-07-23T16:22:19.049Z,44.10
2018-07-23T16:25:15.253Z,44.00
2018-07-23T16:28:12.162Z,43.70
2018-07-23T16:31:08.920Z,43.70
2018-07-23T16:34:05.092Z,43.70
2018-07-23T16:37:01.231Z,43.90
2018-07-23T16:39:57.363Z,44.10
2018-07-23T16:42:53.486Z,44.20
2018-07-23T16:45:50.992Z,44.40
2018-07-23T16:48:47.363Z,44.50
2018-07-23T16:51:43.801Z,44.40
2018-07-23T16:54:39.900Z,44.00
2018-07-23T16:57:36.058Z,44.10
2018-07-23T17:00:32.533Z,44.00
2018-07-23T17:03:29.028Z,43.90
2018-07-23T17:06:25.410Z,44.20
2018-07-23T17:09:21.497Z,44.60
2018-07-23T17:12:18.020Z,44.60
2018-07-23T17:15:14.449Z,44.70
2018-07-23T17:18:10.746Z,44.60
2018-07-23T17:21:07.742Z,44.60
2018-07-23T17:24:06.028Z,44.60
2018-07-23T17:27:02.661Z,45.00
2018-07-23T17:29:58.737Z,45.10
2018-07-23T17:32:55.485Z,45.20
2018-07-23T17:35:51.584Z,45.60
2018-07-23T17:38:47.699Z,45.60
2018-07-23T17:41:44.204Z,45.70
2018-07-23T17:44:42.013Z,45.90
2018-07-23T17:47:38.089Z,45.80
2018-07-23T17:50:34.958Z,46.10
2018-07-23T17:53:31.801Z,46.20
2018-07-23T17:56:28.009Z,46.00
2018-07-23T17:59:24.500Z,45.70
2018-07-23T18:02:21.177Z,45.70
2018-07-23T18:05:17.493Z,45.60
2018-07-23T18:08:13.551Z,45.70
2018-07-23T18:11:09.676Z,45.90
2018-07-23T18:14:06.787Z,46.30
2018-07-23T18:17:02.890Z,46.60
2018-07-23T18:19:59.324Z,46.40
2018-07-23T18:22:55.417Z,46.20
2018-07-23T18:25:51.952Z,46.40
2018-07-23T18:28:48.206Z,46.40
2018-07-23T18:31:44.578Z,46.20
2018-07-23T18:34:40.662Z,46.20
2018-07-23T18:37:37.076Z,46.10
2018-07-23T18:40:33.171Z,45.50
2018-07-23T18:43:29.236Z,45.50
2018-07-23T18:46:25.791Z,45.70
2018-07-23T18:49:48.389Z,45.90
2018-07-23T18:52:44.458Z,46.10
2018-07-23T18:55:41.019Z,46.30
2018-07-23T18:58:37.224Z,46.30
2018-07-23T19:01:33.611Z,46.60
2018-07-23T19:04:29.713Z,46.80
2018-07-23T19:07:26.196Z,47.10
2018-07-23T19:10:22.888Z,47.10
2018-07-23T19:13:18.964Z,47.10
2018-07-23T19:16:15.386Z,47.40
2018-07-23T19:19:11.561Z,47.70
2018-07-23T19:22:07.981Z,47.90
2018-07-23T19:25:04.102Z,48.00
2018-07-23T19:28:04.546Z,48.40
2018-07-23T19:31:00.925Z,48.70
2018-07-23T19:36:54.065Z,50.30
2018-07-23T19:39:50.105Z,50.70
2018-07-23T19:42:46.548Z,50.80
2018-07-23T19:45:42.817Z,51.40
2018-07-23T19:48:39.809Z,52.10
2018-07-23T19:51:36.557Z,52.10
2018-07-23T19:54:32.624Z,52.40
2018-07-23T19:57:29.086Z,52.60
2018-07-23T20:00:25.346Z,52.30
2018-07-23T20:03:21.765Z,52.40
2018-07-23T20:06:21.970Z,52.80
2018-07-23T20:09:18.359Z,53.10
2018-07-23T20:12:15.122Z,53.10
2018-07-23T20:15:11.301Z,53.10
2018-07-23T20:18:07.691Z,52.90
2018-07-23T20:21:03.850Z,53.20
2018-07-23T20:24:00.303Z,53.00
2018-07-23T20:26:56.421Z,53.00
2018-07-23T20:29:52.802Z,53.50
2018-07-23T20:32:49.046Z,53.70
2018-07-23T20:35:45.566Z,53.80
2018-07-23T20:38:41.619Z,54.00
2018-07-23T20:41:38.162Z,54.30
2018-07-23T20:44:34.871Z,54.80
2018-07-23T20:47:31.052Z,55.30
2018-07-23T20:53:23.466Z,55.20
2018-07-23T20:56:19.549Z,55.90
2018-07-23T20:59:16.389Z,56.60
2018-07-23T21:02:12.549Z,57.50
2018-07-23T21:05:08.676Z,58.20
2018-07-23T21:08:05.203Z,58.90
2018-07-23T21:11:01.733Z,59.10
2018-07-23T21:16:53.523Z,59.10
2018-07-23T21:19:49.936Z,59.40
2018-07-23T21:22:46.107Z,59.50
2018-07-23T21:25:42.508Z,59.60
2018-07-23T21:28:38.566Z,59.70
2018-07-23T21:31:34.953Z,60.00
2018-07-23T21:34:31.221Z,60.20
2018-07-23T21:37:27.597Z,60.30
2018-07-23T21:40:24.147Z,60.70
2018-07-23T21:43:22.481Z,60.60
2018-07-23T21:46:18.844Z,60.40
2018-07-23T21:49:14.915Z,60.60
2018-07-23T21:52:12.114Z,61.30
2018-07-23T21:55:08.510Z,62.10
2018-07-23T21:58:04.578Z,62.70
2018-07-23T22:01:00.956Z,63.40
2018-07-23T22:06:52.812Z,63.80
2018-07-23T22:09:48.865Z,63.80
2018-07-23T22:12:45.291Z,63.80
2018-07-23T22:18:37.851Z,63.80
2018-07-23T22:21:34.632Z,64.00
2018-07-23T22:24:31.491Z,64.10
2018-07-23T22:27:27.971Z,64.10
2018-07-23T22:30:24.046Z,64.00
2018-07-23T22:33:20.168Z,64.70
2018-07-23T22:36:16.344Z,64.80
2018-07-23T22:42:08.896Z,65.70
2018-07-23T22:45:06.182Z,65.50
2018-07-23T22:48:02.404Z,66.30
2018-07-23T22:50:58.868Z,66.50
2018-07-23T22:53:55.041Z,66.80
2018-07-23T22:56:51.095Z,66.80
2018-07-23T22:59:47.468Z,66.70
2018-07-23T23:02:43.534Z,66.50
2018-07-23T23:05:39.933Z,66.60
2018-07-23T23:08:35.978Z,66.70
2018-07-23T23:11:32.037Z,67.50
2018-07-23T23:14:28.445Z,68.20
2018-07-23T23:17:24.526Z,68.20
2018-07-23T23:23:16.631Z,68.10
2018-07-23T23:26:12.679Z,68.40
2018-07-23T23:29:09.054Z,68.60
2018-07-23T23:32:05.112Z,68.70
2018-07-23T23:35:02.290Z,68.90
2018-07-23T23:37:58.326Z,69.20
2018-07-23T23:40:54.373Z,69.50
2018-07-23T23:43:50.755Z,69.30
2018-07-23T23:46:46.800Z,68.70
2018-07-23T23:49:42.872Z,68.40
2018-07-23T23:55:34.760Z,69.20
2018-07-23T23:58:31.984Z,69.80
